Terminal Aerodrome Forecast
Issued by NWS

Home | Current Version | Previous Version | Graphics & Text | Print | Product List | Glossary Off
Versions: 1 2 3 4 5 6 7 8 9 10 11 12 13 14 15 16

000
FTUS43 KICT 302300
TAFRSL
TAF
KRSL 302332Z 0100/0124 18010KT P6SM VCTS BKN060CB
      TEMPO 0100/0102 VRB15G30KT
     FM010200 18012KT P6SM VCSH BKN050
     FM010600 17008KT P6SM SCT060 BKN250
     FM011000 18008KT P6SM SCT060=

USA.gov is the U.S. government's official web portal to all federal, state and local government web resources and services.